| time (UTC) | temp F | wind direction | speed knots | gust knots | rain 1hr in | rain 24hr in | rain mn in | humidity % | barometer mb |
| 20260505223019 | 65 | 226 | 0.0 | 7.8 | 0.00 | 0.15 | 0.15 | 48 | 1004.9 |
| 20260505221516 | 65 | 276 | 0.0 | 3.5 | 0.00 | 0.15 | 0.15 | 50 | 1005.0 |
| 20260505220016 | 65 | 236 | 1.7 | 8.7 | 0.00 | 0.15 | 0.15 | 53 | 1005.0 |
| 20260505214514 | 65 | 271 | 0.0 | 4.3 | 0.00 | 0.15 | 0.15 | 54 | 1005.4 |
| 20260505213017 | 65 | 211 | 0.0 | 4.3 | 0.00 | 0.15 | 0.15 | 58 | 1005.5 |
| 20260505211530 | 64 | 287 | 0.0 | 3.5 | 0.00 | 0.15 | 0.15 | 55 | 1005.6 |
| 20260505210012 | 65 | 259 | 0.9 | 9.6 | 0.00 | 0.15 | 0.15 | 57 | 1005.7 |
| 20260505204510 | 63 | 239 | 6.1 | 12.2 | 0.00 | 0.15 | 0.15 | 57 | 1005.6 |
| 20260505203009 | 64 | 226 | 6.1 | 14.8 | 0.00 | 0.15 | 0.15 | 56 | 1005.7 |
| 20260505201509 | 66 | 241 | 9.6 | 18.2 | 0.00 | 0.15 | 0.15 | 57 | 1005.4 |
| 20260505200006 | 65 | 235 | 11.3 | 18.2 | 0.00 | 0.15 | 0.15 | 54 | 1005.5 |
| 20260505194508 | 67 | 219 | 13.0 | 23.5 | 0.00 | 0.15 | 0.15 | 54 | 1005.6 |
| 20260505193003 | 67 | 203 | 9.6 | 21.7 | 0.00 | 0.15 | 0.15 | 58 | 1005.9 |
| 20260505191502 | 67 | 243 | 7.0 | 12.2 | 0.00 | 0.15 | 0.15 | 58 | 1006.1 |
| 20260505190058 | 66 | 165 | 8.7 | 17.4 | 0.00 | 0.15 | 0.15 | 60 | 1006.4 |
| 20260505184556 | 66 | 197 | 6.1 | 14.8 | 0.00 | 0.15 | 0.15 | 63 | 1006.6 |
| 20260505183052 | 64 | 248 | 4.3 | 9.6 | 0.00 | 0.15 | 0.15 | 65 | 1006.9 |
| 20260505181549 | 63 | 244 | 7.0 | 9.6 | 0.00 | 0.15 | 0.15 | 68 | 1007.1 |
| 20260505180053 | 63 | 252 | 6.1 | 10.4 | 0.00 | 0.15 | 0.15 | 67 | 1007.2 |
| 20260505174544 | 61 | 243 | 4.3 | 7.8 | 0.00 | 0.15 | 0.15 | 71 | 1007.1 |
| 20260505173040 | 60 | 97 | 0.9 | 7.8 | 0.00 | 0.15 | 0.15 | 74 | 1007.3 |
| 20260505171538 | 59 | 91 | 3.5 | 7.0 | 0.00 | 0.15 | 0.15 | 78 | 1007.5 |
| 20260505170038 | 58 | 82 | 0.0 | 5.2 | 0.00 | 0.15 | 0.15 | 79 | 1007.6 |
| 20260505164538 | 59 | 121 | 0.0 | 6.1 | 0.00 | 0.15 | 0.15 | 80 | 1007.4 |
| 20260505163034 | 58 | 145 | 3.5 | 6.1 | 0.00 | 0.15 | 0.15 | 83 | 1007.5 |
| 20260505161531 | 57 | 89 | 1.7 | 4.3 | 0.00 | 0.15 | 0.15 | 85 | 1007.5 |
| 20260505153030 | 55 | 61 | 0.0 | 0.0 | 0.00 | 0.15 | 0.15 | 88 | 1007.1 |
| 20260505151534 | 53 | 100 | 0.0 | 4.3 | 0.00 | 0.15 | 0.15 | 91 | 1007.3 |
| 20260505124518 | 51 | 104 | 0.0 | 0.0 | 0.04 | 0.08 | 0.08 | 90 | 1006.0 |
| 20260505123016 | 51 | 67 | 0.0 | 0.0 | 0.04 | 0.07 | 0.07 | 89 | 1006.2 |
| 20260505121515 | 51 | 82 | 0.0 | 0.0 | 0.03 | 0.06 | 0.06 | 89 | 1006.2 |
| 20260505120117 | 52 | 67 | 0.0 | 2.6 | 0.03 | 0.05 | 0.05 | 89 | 1006.2 |
| 20260505114512 | 52 | 98 | 0.0 | 0.0 | 0.03 | 0.04 | 0.04 | 88 | 1006.4 |
| 20260505113010 | 52 | 67 | 2.6 | 3.5 | 0.02 | 0.03 | 0.03 | 87 | 1006.4 |
| 20260505111519 | 52 | 111 | 1.7 | 4.3 | 0.03 | 0.03 | 0.03 | 86 | 1007.0 |
| 20260505101557 | 54 | 150 | 0.0 | 1.7 | 0.00 | 0.00 | 0.00 | 75 | 1007.8 |
| 20260505100052 | 55 | 333 | 0.0 | 6.1 | 0.00 | 0.00 | 0.00 | 70 | 1007.9 |
| 20260505094558 | 54 | 329 | 4.3 | 7.8 | 0.00 | 0.00 | 0.00 | 74 | 1008.1 |
| 20260505093052 | 55 | 335 | 4.3 | 9.6 | 0.00 | 0.00 | 0.00 | 73 | 1008.4 |
| 20260505091541 | 55 | 314 | 4.3 | 8.7 | 0.00 | 0.00 | 0.00 | 74 | 1008.7 |
| 20260505090040 | 55 | 333 | 3.5 | 7.8 | 0.00 | 0.00 | 0.00 | 75 | 1008.7 |
| 20260505084540 | 55 | 299 | 3.5 | 7.8 | 0.00 | 0.00 | 0.00 | 75 | 1008.8 |
| 20260505083047 | 56 | 280 | 3.5 | 9.6 | 0.00 | 0.00 | 0.00 | 70 | 1009.0 |
| 20260505081535 | 57 | 338 | 7.0 | 10.4 | 0.00 | 0.00 | 0.00 | 72 | 1009.1 |
| 20260505080035 | 57 | 333 | 7.0 | 11.3 | 0.00 | 0.00 | 0.00 | 71 | 1008.9 |
| 20260505074530 | 57 | 9 | 1.7 | 9.6 | 0.00 | 0.00 | 0.00 | 70 | 1009.0 |
| 20260505073026 | 56 | 359 | 0.0 | 3.5 | 0.00 | 0.00 | 0.00 | 73 | 1009.0 |
| 20260505071522 | 57 | 345 | 2.6 | 5.2 | 0.00 | 0.00 | 0.00 | 73 | 1009.0 |
| 20260505070023 | 57 | 336 | 2.6 | 7.8 | 0.00 | 0.00 | 0.00 | 72 | 1009.1 |
| 20260505064517 | 57 | 340 | 7.0 | 11.3 | 0.00 | 0.00 | 0.00 | 71 | 1008.8 |
| 20260505063015 | 58 | 304 | 4.3 | 8.7 | 0.00 | 0.00 | 0.00 | 69 | 1009.1 |
| 20260505061519 | 58 | 312 | 8.7 | 13.9 | 0.00 | 0.00 | 0.00 | 69 | 1008.9 |
| 20260505060014 | 58 | 305 | 7.0 | 15.6 | 0.00 | 0.00 | 0.00 | 68 | 1008.9 |
| 20260505054513 | 57 | 310 | 5.2 | 7.8 | 0.00 | 0.00 | 0.00 | 67 | 1009.1 |
| 20260505053015 | 56 | 333 | 1.7 | 4.3 | 0.00 | 0.00 | 0.00 | 70 | 1009.0 |
| 20260505051514 | 57 | 298 | 5.2 | 7.8 | 0.00 | 0.00 | 0.00 | 67 | 1008.7 |
| 20260505041509 | 56 | 353 | 4.3 | 8.7 | 0.00 | 0.00 | 0.00 | 69 | 1008.8 |
| 20260505040019 | 56 | 48 | 7.8 | 13.0 | 0.00 | 0.00 | 0.00 | 68 | 1009.0 |
| 20260505034508 | 56 | 331 | 12.2 | 16.5 | 0.00 | 0.00 | 0.00 | 68 | 1008.7 |
| 20260505033012 | 57 | 312 | 13.0 | 20.0 | 0.00 | 0.00 | 0.00 | 66 | 1008.3 |
| 20260505031506 | 58 | 314 | 13.0 | 20.9 | 0.00 | 0.00 | 0.00 | 60 | 1008.3 |
| 20260505030013 | 58 | 298 | 18.2 | 25.2 | 0.00 | 0.00 | 0.00 | 68 | 1007.9 |
| 20260505024505 | 57 | 298 | 15.6 | 21.7 | 0.00 | 0.00 | 0.00 | 69 | 1007.8 |
| 20260505023003 | 56 | 302 | 13.9 | 21.7 | 0.00 | 0.00 | 0.00 | 73 | 1007.9 |
| 20260505021503 | 57 | 311 | 14.8 | 24.3 | 0.00 | 0.00 | 0.00 | 67 | 1007.8 |
| 20260505020005 | 58 | 301 | 12.2 | 19.1 | 0.00 | 0.00 | 0.00 | 62 | 1007.6 |
| 20260505014500 | 60 | 334 | 12.2 | 29.5 | 0.00 | 0.00 | 0.00 | 57 | 1006.9 |
| 20260505013103 | 60 | 322 | 10.4 | 23.5 | 0.00 | 0.00 | 0.00 | 54 | 1007.1 |
| 20260505011618 | 59 | 334 | 9.6 | 18.2 | 0.00 | 0.00 | 0.00 | 58 | 1007.4 |
| 20260505010107 | 61 | 307 | 7.0 | 15.6 | 0.00 | 0.00 | 0.00 | 52 | 1008.0 |
| 20260505004600 | 63 | 323 | 9.6 | 15.6 | 0.00 | 0.00 | 0.00 | 45 | 1007.8 |
| 20260505003057 | 64 | 291 | 6.1 | 16.5 | 0.00 | 0.00 | 0.00 | 42 | 1007.9 |
| 20260505001556 | 65 | 304 | 13.0 | 25.2 | 0.00 | 0.00 | 0.00 | 40 | 1007.0 |
| 20260505000107 | 68 | 304 | 12.2 | 23.5 | 0.00 | 0.00 | 0.00 | 30 | 1007.1 |
| 20260504234605 | 69 | 274 | 9.6 | 19.1 | 0.00 | 0.00 | 0.00 | 29 | 1006.8 |
| 20260504233057 | 70 | 292 | 7.8 | 17.4 | 0.00 | 0.00 | 0.00 | 30 | 1006.2 |
| 20260504231553 | 70 | 253 | 6.1 | 23.5 | 0.00 | 0.00 | 0.00 | 34 | 1006.2 |
| 20260504230054 | 70 | 271 | 1.7 | 11.3 | 0.00 | 0.00 | 0.00 | 34 | 1006.1 |
| 20260504224553 | 72 | 287 | 0.9 | 10.4 | 0.00 | 0.00 | 0.00 | 32 | 1006.5 |